sensor_id;sensor_type;location;lat;lon;timestamp;P1;durP1;ratioP1;P2;durP2;ratioP2
51764;SDS011;37835;53.256;6.456;2023-06-10T00:01:50;10.65;;;5.68;;
51764;SDS011;37835;53.256;6.456;2023-06-10T00:04:20;8.85;;;5.45;;
51764;SDS011;37835;53.256;6.456;2023-06-10T00:06:46;7.95;;;5.40;;
51764;SDS011;37835;53.256;6.456;2023-06-10T00:09:14;9.18;;;5.40;;
51764;SDS011;37835;53.256;6.456;2023-06-10T00:11:40;10.55;;;6.05;;
51764;SDS011;37835;53.256;6.456;2023-06-10T00:14:06;8.35;;;5.40;;
51764;SDS011;37835;53.256;6.456;2023-06-10T00:16:33;9.57;;;5.45;;
51764;SDS011;37835;53.256;6.456;2023-06-10T00:18:59;11.55;;;6.00;;
51764;SDS011;37835;53.256;6.456;2023-06-10T00:21:29;7.85;;;5.68;;
51764;SDS011;37835;53.256;6.456;2023-06-10T00:24:11;13.48;;;6.30;;
51764;SDS011;37835;53.256;6.456;2023-06-10T00:26:43;11.63;;;5.88;;
51764;SDS011;37835;53.256;6.456;2023-06-10T00:31:35;12.57;;;5.75;;
51764;SDS011;37835;53.256;6.456;2023-06-10T00:34:01;8.88;;;5.82;;
51764;SDS011;37835;53.256;6.456;2023-06-10T00:36:28;11.70;;;5.93;;
51764;SDS011;37835;53.256;6.456;2023-06-10T00:38:54;11.38;;;5.32;;
51764;SDS011;37835;53.256;6.456;2023-06-10T00:41:20;10.68;;;5.15;;
51764;SDS011;37835;53.256;6.456;2023-06-10T00:43:46;8.98;;;6.30;;
51764;SDS011;37835;53.256;6.456;2023-06-10T00:46:11;7.28;;;5.18;;
51764;SDS011;37835;53.256;6.456;2023-06-10T00:48:38;10.18;;;5.72;;
51764;SDS011;37835;53.256;6.456;2023-06-10T00:51:05;14.57;;;5.85;;
51764;SDS011;37835;53.256;6.456;2023-06-10T00:53:33;9.45;;;5.82;;
51764;SDS011;37835;53.256;6.456;2023-06-10T00:56:04;11.40;;;5.60;;
51764;SDS011;37835;53.256;6.456;2023-06-10T00:58:29;9.40;;;6.28;;
51764;SDS011;37835;53.256;6.456;2023-06-10T01:00:56;10.95;;;6.25;;
51764;SDS011;37835;53.256;6.456;2023-06-10T01:03:22;9.75;;;5.82;;
51764;SDS011;37835;53.256;6.456;2023-06-10T01:05:50;13.82;;;7.10;;
51764;SDS011;37835;53.256;6.456;2023-06-10T01:11:36;8.63;;;6.13;;
51764;SDS011;37835;53.256;6.456;2023-06-10T01:14:09;10.52;;;6.10;;
51764;SDS011;37835;53.256;6.456;2023-06-10T01:16:35;9.23;;;6.20;;
51764;SDS011;37835;53.256;6.456;2023-06-10T01:19:02;10.32;;;6.47;;
51764;SDS011;37835;53.256;6.456;2023-06-10T01:21:28;10.73;;;6.93;;
51764;SDS011;37835;53.256;6.456;2023-06-10T01:23:54;9.45;;;6.57;;
51764;SDS011;37835;53.256;6.456;2023-06-10T01:26:22;11.05;;;6.63;;
51764;SDS011;37835;53.256;6.456;2023-06-10T01:28:58;13.90;;;6.80;;
51764;SDS011;37835;53.256;6.456;2023-06-10T01:31:41;12.55;;;7.20;;
51764;SDS011;37835;53.256;6.456;2023-06-10T01:34:14;9.20;;;6.88;;
51764;SDS011;37835;53.256;6.456;2023-06-10T01:36:44;11.80;;;7.28;;
51764;SDS011;37835;53.256;6.456;2023-06-10T01:39:14;15.45;;;7.70;;
51764;SDS011;37835;53.256;6.456;2023-06-10T01:41:45;9.00;;;6.55;;
51764;SDS011;37835;53.256;6.456;2023-06-10T01:44:17;11.35;;;7.28;;
51764;SDS011;37835;53.256;6.456;2023-06-10T01:46:44;13.52;;;7.63;;
51764;SDS011;37835;53.256;6.456;2023-06-10T01:49:09;10.88;;;8.07;;
51764;SDS011;37835;53.256;6.456;2023-06-10T01:51:35;14.77;;;8.23;;
51764;SDS011;37835;53.256;6.456;2023-06-10T01:54:01;12.38;;;7.15;;
51764;SDS011;37835;53.256;6.456;2023-06-10T01:56:26;12.50;;;7.78;;
51764;SDS011;37835;53.256;6.456;2023-06-10T01:58:52;12.68;;;7.95;;
51764;SDS011;37835;53.256;6.456;2023-06-10T02:01:20;11.30;;;7.13;;
51764;SDS011;37835;53.256;6.456;2023-06-10T02:03:46;9.63;;;7.60;;
51764;SDS011;37835;53.256;6.456;2023-06-10T02:06:11;11.05;;;7.43;;
51764;SDS011;37835;53.256;6.456;2023-06-10T02:08:37;11.23;;;7.70;;
51764;SDS011;37835;53.256;6.456;2023-06-10T02:11:02;13.57;;;7.60;;
51764;SDS011;37835;53.256;6.456;2023-06-10T02:13:28;11.32;;;7.45;;
51764;SDS011;37835;53.256;6.456;2023-06-10T02:15:54;10.07;;;7.43;;
51764;SDS011;37835;53.256;6.456;2023-06-10T02:18:20;8.75;;;6.57;;
51764;SDS011;37835;53.256;6.456;2023-06-10T02:20:46;15.05;;;6.68;;
51764;SDS011;37835;53.256;6.456;2023-06-10T02:23:11;15.40;;;8.00;;
51764;SDS011;37835;53.256;6.456;2023-06-10T02:25:37;12.35;;;6.85;;
51764;SDS011;37835;53.256;6.456;2023-06-10T02:28:02;13.15;;;7.30;;
51764;SDS011;37835;53.256;6.456;2023-06-10T02:30:28;7.68;;;6.20;;
51764;SDS011;37835;53.256;6.456;2023-06-10T02:32:54;7.85;;;6.25;;
51764;SDS011;37835;53.256;6.456;2023-06-10T02:35:21;11.30;;;7.10;;
51764;SDS011;37835;53.256;6.456;2023-06-10T02:37:47;15.45;;;6.97;;
51764;SDS011;37835;53.256;6.456;2023-06-10T02:40:13;11.10;;;6.65;;
51764;SDS011;37835;53.256;6.456;2023-06-10T02:42:38;14.25;;;7.32;;
51764;SDS011;37835;53.256;6.456;2023-06-10T02:45:04;11.23;;;6.60;;
51764;SDS011;37835;53.256;6.456;2023-06-10T02:47:30;10.52;;;6.82;;
51764;SDS011;37835;53.256;6.456;2023-06-10T02:49:56;12.40;;;7.00;;
51764;SDS011;37835;53.256;6.456;2023-06-10T02:52:21;13.60;;;6.68;;
51764;SDS011;37835;53.256;6.456;2023-06-10T02:54:47;12.75;;;6.93;;
51764;SDS011;37835;53.256;6.456;2023-06-10T02:57:13;10.98;;;6.32;;
51764;SDS011;37835;53.256;6.456;2023-06-10T02:59:39;10.70;;;6.25;;
51764;SDS011;37835;53.256;6.456;2023-06-10T03:02:06;13.65;;;7.25;;
51764;SDS011;37835;53.256;6.456;2023-06-10T03:04:31;10.68;;;7.22;;
51764;SDS011;37835;53.256;6.456;2023-06-10T03:06:57;12.63;;;5.82;;
51764;SDS011;37835;53.256;6.456;2023-06-10T03:09:25;12.55;;;6.43;;
51764;SDS011;37835;53.256;6.456;2023-06-10T03:11:51;13.15;;;6.60;;
51764;SDS011;37835;53.256;6.456;2023-06-10T03:14:16;10.60;;;6.57;;
51764;SDS011;37835;53.256;6.456;2023-06-10T03:16:42;11.07;;;6.50;;
51764;SDS011;37835;53.256;6.456;2023-06-10T03:19:10;12.43;;;6.75;;
51764;SDS011;37835;53.256;6.456;2023-06-10T03:21:36;12.25;;;6.95;;
51764;SDS011;37835;53.256;6.456;2023-06-10T03:24:02;13.75;;;6.82;;
51764;SDS011;37835;53.256;6.456;2023-06-10T03:26:28;10.20;;;6.80;;
51764;SDS011;37835;53.256;6.456;2023-06-10T03:28:54;14.00;;;6.70;;
51764;SDS011;37835;53.256;6.456;2023-06-10T03:31:19;13.60;;;6.53;;
51764;SDS011;37835;53.256;6.456;2023-06-10T03:33:45;11.98;;;6.57;;
51764;SDS011;37835;53.256;6.456;2023-06-10T03:36:10;10.93;;;6.22;;
51764;SDS011;37835;53.256;6.456;2023-06-10T03:38:36;14.32;;;7.38;;
51764;SDS011;37835;53.256;6.456;2023-06-10T03:41:02;10.85;;;7.28;;
51764;SDS011;37835;53.256;6.456;2023-06-10T03:43:27;13.07;;;6.30;;
51764;SDS011;37835;53.256;6.456;2023-06-10T03:45:53;14.43;;;6.32;;
51764;SDS011;37835;53.256;6.456;2023-06-10T03:48:18;11.88;;;6.78;;
51764;SDS011;37835;53.256;6.456;2023-06-10T03:50:44;12.52;;;7.22;;
51764;SDS011;37835;53.256;6.456;2023-06-10T03:53:12;11.55;;;6.57;;
51764;SDS011;37835;53.256;6.456;2023-06-10T03:55:38;12.43;;;6.95;;
51764;SDS011;37835;53.256;6.456;2023-06-10T03:58:03;13.00;;;6.95;;
51764;SDS011;37835;53.256;6.456;2023-06-10T04:00:29;10.15;;;6.50;;
51764;SDS011;37835;53.256;6.456;2023-06-10T04:02:55;12.30;;;7.28;;
51764;SDS011;37835;53.256;6.456;2023-06-10T04:05:23;13.68;;;7.43;;
51764;SDS011;37835;53.256;6.456;2023-06-10T04:07:48;10.85;;;6.72;;
51764;SDS011;37835;53.256;6.456;2023-06-10T04:10:14;13.95;;;7.57;;
51764;SDS011;37835;53.256;6.456;2023-06-10T04:12:40;13.93;;;6.95;;
51764;SDS011;37835;53.256;6.456;2023-06-10T04:15:06;12.50;;;7.15;;
51764;SDS011;37835;53.256;6.456;2023-06-10T04:17:32;15.88;;;7.28;;
51764;SDS011;37835;53.256;6.456;2023-06-10T04:19:58;12.00;;;7.30;;
51764;SDS011;37835;53.256;6.456;2023-06-10T04:22:24;16.60;;;7.63;;
51764;SDS011;37835;53.256;6.456;2023-06-10T04:24:50;13.75;;;7.65;;
51764;SDS011;37835;53.256;6.456;2023-06-10T04:27:15;16.70;;;8.02;;
51764;SDS011;37835;53.256;6.456;2023-06-10T04:29:41;10.13;;;7.32;;
51764;SDS011;37835;53.256;6.456;2023-06-10T04:32:06;16.02;;;8.00;;
51764;SDS011;37835;53.256;6.456;2023-06-10T04:34:33;17.38;;;7.47;;
51764;SDS011;37835;53.256;6.456;2023-06-10T04:36:58;18.38;;;7.57;;
51764;SDS011;37835;53.256;6.456;2023-06-10T04:39:24;14.13;;;7.07;;
51764;SDS011;37835;53.256;6.456;2023-06-10T04:41:50;14.85;;;8.13;;
51764;SDS011;37835;53.256;6.456;2023-06-10T04:44:15;12.20;;;7.05;;
51764;SDS011;37835;53.256;6.456;2023-06-10T04:46:41;13.40;;;7.53;;
51764;SDS011;37835;53.256;6.456;2023-06-10T04:49:06;12.90;;;7.75;;
51764;SDS011;37835;53.256;6.456;2023-06-10T04:51:32;15.85;;;7.38;;
51764;SDS011;37835;53.256;6.456;2023-06-10T04:53:58;14.52;;;8.32;;
51764;SDS011;37835;53.256;6.456;2023-06-10T04:56:27;15.50;;;7.43;;
51764;SDS011;37835;53.256;6.456;2023-06-10T04:58:53;14.05;;;7.50;;
51764;SDS011;37835;53.256;6.456;2023-06-10T05:01:19;12.60;;;7.30;;
51764;SDS011;37835;53.256;6.456;2023-06-10T05:03:44;13.90;;;7.90;;
51764;SDS011;37835;53.256;6.456;2023-06-10T05:06:10;13.50;;;7.65;;
51764;SDS011;37835;53.256;6.456;2023-06-10T05:08:36;17.95;;;8.02;;
51764;SDS011;37835;53.256;6.456;2023-06-10T05:11:01;11.82;;;7.38;;
51764;SDS011;37835;53.256;6.456;2023-06-10T05:13:27;16.35;;;7.35;;
51764;SDS011;37835;53.256;6.456;2023-06-10T05:15:52;13.60;;;7.07;;
51764;SDS011;37835;53.256;6.456;2023-06-10T05:18:18;15.85;;;7.55;;
51764;SDS011;37835;53.256;6.456;2023-06-10T05:20:43;13.27;;;7.57;;
51764;SDS011;37835;53.256;6.456;2023-06-10T05:23:09;17.05;;;7.45;;
51764;SDS011;37835;53.256;6.456;2023-06-10T05:25:35;14.43;;;7.93;;
51764;SDS011;37835;53.256;6.456;2023-06-10T05:28:01;10.93;;;6.20;;
51764;SDS011;37835;53.256;6.456;2023-06-10T05:30:27;14.55;;;6.68;;
51764;SDS011;37835;53.256;6.456;2023-06-10T05:32:53;14.25;;;7.07;;
51764;SDS011;37835;53.256;6.456;2023-06-10T05:35:18;12.80;;;7.35;;
51764;SDS011;37835;53.256;6.456;2023-06-10T05:37:44;14.00;;;7.53;;
51764;SDS011;37835;53.256;6.456;2023-06-10T05:40:10;15.90;;;7.25;;
51764;SDS011;37835;53.256;6.456;2023-06-10T05:42:36;14.18;;;6.78;;
51764;SDS011;37835;53.256;6.456;2023-06-10T05:45:02;11.13;;;6.63;;
51764;SDS011;37835;53.256;6.456;2023-06-10T05:47:28;13.18;;;6.63;;
51764;SDS011;37835;53.256;6.456;2023-06-10T05:49:53;13.30;;;7.13;;
51764;SDS011;37835;53.256;6.456;2023-06-10T05:52:19;11.45;;;6.18;;
51764;SDS011;37835;53.256;6.456;2023-06-10T05:54:45;17.13;;;6.95;;
51764;SDS011;37835;53.256;6.456;2023-06-10T05:57:10;13.55;;;6.15;;
51764;SDS011;37835;53.256;6.456;2023-06-10T05:59:36;16.45;;;6.70;;
51764;SDS011;37835;53.256;6.456;2023-06-10T06:02:01;14.27;;;6.70;;
51764;SDS011;37835;53.256;6.456;2023-06-10T06:04:27;12.50;;;5.63;;
51764;SDS011;37835;53.256;6.456;2023-06-10T06:06:53;14.48;;;6.38;;
51764;SDS011;37835;53.256;6.456;2023-06-10T06:09:18;21.05;;;6.25;;
51764;SDS011;37835;53.256;6.456;2023-06-10T06:11:44;12.82;;;6.57;;
51764;SDS011;37835;53.256;6.456;2023-06-10T06:14:10;11.70;;;5.97;;
51764;SDS011;37835;53.256;6.456;2023-06-10T06:16:35;11.32;;;5.45;;
51764;SDS011;37835;53.256;6.456;2023-06-10T06:19:01;11.75;;;6.13;;
51764;SDS011;37835;53.256;6.456;2023-06-10T06:21:26;13.32;;;6.82;;
51764;SDS011;37835;53.256;6.456;2023-06-10T06:23:52;13.70;;;5.88;;
51764;SDS011;37835;53.256;6.456;2023-06-10T06:26:17;14.60;;;6.50;;
51764;SDS011;37835;53.256;6.456;2023-06-10T06:28:43;14.60;;;6.10;;
51764;SDS011;37835;53.256;6.456;2023-06-10T06:31:08;10.07;;;5.57;;
51764;SDS011;37835;53.256;6.456;2023-06-10T06:33:34;11.20;;;5.65;;
51764;SDS011;37835;53.256;6.456;2023-06-10T06:36:00;11.52;;;5.82;;
51764;SDS011;37835;53.256;6.456;2023-06-10T06:38:26;10.50;;;5.40;;
51764;SDS011;37835;53.256;6.456;2023-06-10T06:40:51;15.35;;;6.13;;
51764;SDS011;37835;53.256;6.456;2023-06-10T06:43:17;9.15;;;5.25;;
51764;SDS011;37835;53.256;6.456;2023-06-10T06:45:43;10.00;;;5.47;;
51764;SDS011;37835;53.256;6.456;2023-06-10T06:48:10;8.25;;;5.18;;
51764;SDS011;37835;53.256;6.456;2023-06-10T06:50:36;10.93;;;5.65;;
51764;SDS011;37835;53.256;6.456;2023-06-10T06:53:02;14.32;;;5.65;;
51764;SDS011;37835;53.256;6.456;2023-06-10T06:55:28;9.80;;;5.57;;
51764;SDS011;37835;53.256;6.456;2023-06-10T06:57:54;11.07;;;5.97;;
51764;SDS011;37835;53.256;6.456;2023-06-10T07:00:20;12.32;;;6.15;;
51764;SDS011;37835;53.256;6.456;2023-06-10T07:02:46;11.13;;;5.18;;
51764;SDS011;37835;53.256;6.456;2023-06-10T07:05:12;12.88;;;6.10;;
51764;SDS011;37835;53.256;6.456;2023-06-10T07:07:37;12.32;;;5.53;;
51764;SDS011;37835;53.256;6.456;2023-06-10T07:10:03;12.32;;;5.90;;
51764;SDS011;37835;53.256;6.456;2023-06-10T07:12:29;11.55;;;5.82;;
51764;SDS011;37835;53.256;6.456;2023-06-10T07:14:54;12.77;;;6.30;;
51764;SDS011;37835;53.256;6.456;2023-06-10T07:17:20;13.57;;;5.97;;
51764;SDS011;37835;53.256;6.456;2023-06-10T07:19:46;11.18;;;6.20;;
51764;SDS011;37835;53.256;6.456;2023-06-10T07:22:11;11.27;;;5.72;;
51764;SDS011;37835;53.256;6.456;2023-06-10T07:24:37;11.45;;;5.68;;
51764;SDS011;37835;53.256;6.456;2023-06-10T07:27:02;12.75;;;6.00;;
51764;SDS011;37835;53.256;6.456;2023-06-10T07:29:28;12.55;;;6.22;;
51764;SDS011;37835;53.256;6.456;2023-06-10T07:31:54;10.70;;;6.07;;
51764;SDS011;37835;53.256;6.456;2023-06-10T07:34:19;9.25;;;6.30;;
51764;SDS011;37835;53.256;6.456;2023-06-10T07:36:45;9.30;;;5.45;;
51764;SDS011;37835;53.256;6.456;2023-06-10T07:39:10;12.68;;;5.68;;
51764;SDS011;37835;53.256;6.456;2023-06-10T07:41:36;11.43;;;5.60;;
51764;SDS011;37835;53.256;6.456;2023-06-10T07:44:02;13.68;;;5.78;;
51764;SDS011;37835;53.256;6.456;2023-06-10T07:46:27;13.82;;;6.13;;
51764;SDS011;37835;53.256;6.456;2023-06-10T07:48:53;14.82;;;6.47;;
51764;SDS011;37835;53.256;6.456;2023-06-10T07:51:20;11.85;;;5.63;;
51764;SDS011;37835;53.256;6.456;2023-06-10T07:53:46;8.95;;;5.78;;
51764;SDS011;37835;53.256;6.456;2023-06-10T07:56:11;12.00;;;5.53;;
51764;SDS011;37835;53.256;6.456;2023-06-10T07:58:37;13.75;;;6.07;;
51764;SDS011;37835;53.256;6.456;2023-06-10T08:01:03;9.70;;;5.35;;
51764;SDS011;37835;53.256;6.456;2023-06-10T08:03:28;10.68;;;5.28;;
51764;SDS011;37835;53.256;6.456;2023-06-10T08:05:54;8.52;;;5.78;;
51764;SDS011;37835;53.256;6.456;2023-06-10T08:08:19;8.98;;;5.50;;
51764;SDS011;37835;53.256;6.456;2023-06-10T08:10:45;11.98;;;5.38;;
51764;SDS011;37835;53.256;6.456;2023-06-10T08:13:11;12.05;;;4.65;;
51764;SDS011;37835;53.256;6.456;2023-06-10T08:15:36;11.65;;;5.28;;
51764;SDS011;37835;53.256;6.456;2023-06-10T08:18:02;10.00;;;5.05;;
51764;SDS011;37835;53.256;6.456;2023-06-10T08:20:28;12.48;;;5.32;;
51764;SDS011;37835;53.256;6.456;2023-06-10T08:22:53;12.73;;;5.13;;
51764;SDS011;37835;53.256;6.456;2023-06-10T08:25:19;11.75;;;5.43;;
51764;SDS011;37835;53.256;6.456;2023-06-10T08:27:47;9.82;;;4.80;;
51764;SDS011;37835;53.256;6.456;2023-06-10T08:30:12;11.43;;;5.20;;
51764;SDS011;37835;53.256;6.456;2023-06-10T08:32:38;11.60;;;4.95;;
51764;SDS011;37835;53.256;6.456;2023-06-10T08:35:04;7.28;;;4.95;;
51764;SDS011;37835;53.256;6.456;2023-06-10T08:37:30;11.50;;;5.47;;
51764;SDS011;37835;53.256;6.456;2023-06-10T08:39:56;10.68;;;4.95;;
51764;SDS011;37835;53.256;6.456;2023-06-10T08:44:54;13.25;;;5.38;;
51764;SDS011;37835;53.256;6.456;2023-06-10T08:47:22;12.00;;;5.00;;
51764;SDS011;37835;53.256;6.456;2023-06-10T08:49:49;7.47;;;4.60;;
51764;SDS011;37835;53.256;6.456;2023-06-10T08:52:16;8.50;;;4.68;;
51764;SDS011;37835;53.256;6.456;2023-06-10T08:54:43;8.63;;;4.82;;
51764;SDS011;37835;53.256;6.456;2023-06-10T08:57:18;7.13;;;4.68;;
51764;SDS011;37835;53.256;6.456;2023-06-10T08:59:46;9.80;;;4.47;;
51764;SDS011;37835;53.256;6.456;2023-06-10T09:02:12;10.55;;;4.63;;
51764;SDS011;37835;53.256;6.456;2023-06-10T09:04:40;18.60;;;5.00;;
51764;SDS011;37835;53.256;6.456;2023-06-10T09:07:08;16.70;;;4.82;;
51764;SDS011;37835;53.256;6.456;2023-06-10T09:09:34;25.58;;;6.07;;
51764;SDS011;37835;53.256;6.456;2023-06-10T09:12:01;11.38;;;4.80;;
51764;SDS011;37835;53.256;6.456;2023-06-10T09:14:26;10.35;;;4.78;;
51764;SDS011;37835;53.256;6.456;2023-06-10T09:16:52;10.90;;;4.60;;
51764;SDS011;37835;53.256;6.456;2023-06-10T09:19:21;7.47;;;4.57;;
51764;SDS011;37835;53.256;6.456;2023-06-10T09:21:49;10.50;;;4.50;;
51764;SDS011;37835;53.256;6.456;2023-06-10T09:24:15;17.45;;;4.88;;
51764;SDS011;37835;53.256;6.456;2023-06-10T09:26:41;13.50;;;5.18;;
51764;SDS011;37835;53.256;6.456;2023-06-10T09:29:08;13.55;;;5.18;;
51764;SDS011;37835;53.256;6.456;2023-06-10T09:31:35;7.47;;;4.55;;
51764;SDS011;37835;53.256;6.456;2023-06-10T09:34:06;13.40;;;4.65;;
51764;SDS011;37835;53.256;6.456;2023-06-10T09:36:35;8.98;;;4.78;;
51764;SDS011;37835;53.256;6.456;2023-06-10T09:39:02;7.60;;;4.68;;
51764;SDS011;37835;53.256;6.456;2023-06-10T09:41:32;12.07;;;4.60;;
51764;SDS011;37835;53.256;6.456;2023-06-10T09:44:01;8.85;;;5.00;;
51764;SDS011;37835;53.256;6.456;2023-06-10T09:46:31;21.25;;;5.47;;
51764;SDS011;37835;53.256;6.456;2023-06-10T09:48:59;7.38;;;4.38;;
51764;SDS011;37835;53.256;6.456;2023-06-10T09:51:25;17.98;;;4.97;;
51764;SDS011;37835;53.256;6.456;2023-06-10T09:53:51;11.85;;;4.78;;
51764;SDS011;37835;53.256;6.456;2023-06-10T09:56:17;12.00;;;4.85;;
51764;SDS011;37835;53.256;6.456;2023-06-10T09:58:44;9.98;;;4.78;;
51764;SDS011;37835;53.256;6.456;2023-06-10T10:01:11;9.13;;;4.50;;
51764;SDS011;37835;53.256;6.456;2023-06-10T10:03:45;11.68;;;4.70;;
51764;SDS011;37835;53.256;6.456;2023-06-10T10:06:13;8.88;;;4.93;;
51764;SDS011;37835;53.256;6.456;2023-06-10T10:08:40;13.88;;;4.80;;
51764;SDS011;37835;53.256;6.456;2023-06-10T10:11:06;9.55;;;5.10;;
51764;SDS011;37835;53.256;6.456;2023-06-10T10:13:33;13.50;;;4.70;;
51764;SDS011;37835;53.256;6.456;2023-06-10T10:16:01;9.98;;;4.82;;
51764;SDS011;37835;53.256;6.456;2023-06-10T10:18:54;12.43;;;4.75;;
51764;SDS011;37835;53.256;6.456;2023-06-10T10:21:22;8.68;;;4.30;;
51764;SDS011;37835;53.256;6.456;2023-06-10T10:26:23;6.72;;;4.40;;
51764;SDS011;37835;53.256;6.456;2023-06-10T10:28:53;9.77;;;3.97;;
51764;SDS011;37835;53.256;6.456;2023-06-10T10:31:22;11.93;;;4.95;;
51764;SDS011;37835;53.256;6.456;2023-06-10T10:33:52;12.98;;;4.50;;
51764;SDS011;37835;53.256;6.456;2023-06-10T10:36:22;7.50;;;3.70;;
51764;SDS011;37835;53.256;6.456;2023-06-10T10:38:48;10.05;;;4.18;;
51764;SDS011;37835;53.256;6.456;2023-06-10T10:41:14;5.68;;;4.05;;
51764;SDS011;37835;53.256;6.456;2023-06-10T10:43:41;8.20;;;4.03;;
51764;SDS011;37835;53.256;6.456;2023-06-10T10:46:11;12.32;;;4.82;;
51764;SDS011;37835;53.256;6.456;2023-06-10T10:48:39;8.88;;;4.10;;
51764;SDS011;37835;53.256;6.456;2023-06-10T10:51:08;5.78;;;4.45;;
51764;SDS011;37835;53.256;6.456;2023-06-10T10:53:36;9.85;;;4.00;;
51764;SDS011;37835;53.256;6.456;2023-06-10T10:56:14;10.05;;;3.60;;
51764;SDS011;37835;53.256;6.456;2023-06-10T10:58:42;8.02;;;4.30;;
51764;SDS011;37835;53.256;6.456;2023-06-10T11:01:48;6.72;;;3.83;;
51764;SDS011;37835;53.256;6.456;2023-06-10T11:04:14;11.52;;;4.30;;
51764;SDS011;37835;53.256;6.456;2023-06-10T11:06:51;7.45;;;3.80;;
51764;SDS011;37835;53.256;6.456;2023-06-10T11:09:28;6.25;;;3.33;;
51764;SDS011;37835;53.256;6.456;2023-06-10T11:11:55;6.65;;;3.80;;
51764;SDS011;37835;53.256;6.456;2023-06-10T11:14:26;11.60;;;4.13;;
51764;SDS011;37835;53.256;6.456;2023-06-10T11:16:58;8.57;;;3.70;;
51764;SDS011;37835;53.256;6.456;2023-06-10T11:19:37;5.38;;;3.33;;
51764;SDS011;37835;53.256;6.456;2023-06-10T11:22:06;11.68;;;3.83;;
51764;SDS011;37835;53.256;6.456;2023-06-10T11:24:32;6.75;;;3.90;;
51764;SDS011;37835;53.256;6.456;2023-06-10T11:27:14;12.07;;;3.58;;
51764;SDS011;37835;53.256;6.456;2023-06-10T11:32:32;6.43;;;3.55;;
51764;SDS011;37835;53.256;6.456;2023-06-10T11:34:59;9.73;;;3.80;;
51764;SDS011;37835;53.256;6.456;2023-06-10T11:37:27;6.00;;;3.63;;
51764;SDS011;37835;53.256;6.456;2023-06-10T11:39:53;8.57;;;3.58;;
51764;SDS011;37835;53.256;6.456;2023-06-10T11:42:20;6.82;;;3.88;;
51764;SDS011;37835;53.256;6.456;2023-06-10T11:44:50;6.38;;;3.63;;
51764;SDS011;37835;53.256;6.456;2023-06-10T11:47:17;6.57;;;3.72;;
51764;SDS011;37835;53.256;6.456;2023-06-10T11:49:44;8.27;;;3.92;;
51764;SDS011;37835;53.256;6.456;2023-06-10T11:52:10;6.50;;;3.92;;
51764;SDS011;37835;53.256;6.456;2023-06-10T11:54:37;7.70;;;3.28;;
51764;SDS011;37835;53.256;6.456;2023-06-10T11:57:03;8.45;;;3.50;;
51764;SDS011;37835;53.256;6.456;2023-06-10T11:59:29;6.35;;;4.13;;
51764;SDS011;37835;53.256;6.456;2023-06-10T12:01:55;11.27;;;3.38;;
51764;SDS011;37835;53.256;6.456;2023-06-10T12:04:21;4.05;;;3.08;;
51764;SDS011;37835;53.256;6.456;2023-06-10T12:06:48;9.30;;;3.83;;
51764;SDS011;37835;53.256;6.456;2023-06-10T12:09:21;5.68;;;3.55;;
51764;SDS011;37835;53.256;6.456;2023-06-10T12:19:56;8.07;;;3.55;;
51764;SDS011;37835;53.256;6.456;2023-06-10T12:22:22;10.75;;;3.50;;
51764;SDS011;37835;53.256;6.456;2023-06-10T12:24:59;4.57;;;2.92;;
51764;SDS011;37835;53.256;6.456;2023-06-10T12:27:27;7.63;;;4.22;;
51764;SDS011;37835;53.256;6.456;2023-06-10T12:29:55;11.15;;;3.83;;
51764;SDS011;37835;53.256;6.456;2023-06-10T12:32:34;9.02;;;3.58;;
51764;SDS011;37835;53.256;6.456;2023-06-10T12:37:33;7.38;;;3.78;;
51764;SDS011;37835;53.256;6.456;2023-06-10T12:40:00;11.40;;;4.28;;
51764;SDS011;37835;53.256;6.456;2023-06-10T12:42:28;11.35;;;4.00;;
51764;SDS011;37835;53.256;6.456;2023-06-10T12:44:55;10.68;;;3.80;;
51764;SDS011;37835;53.256;6.456;2023-06-10T12:47:34;12.52;;;3.75;;
51764;SDS011;37835;53.256;6.456;2023-06-10T12:50:06;10.13;;;3.75;;
51764;SDS011;37835;53.256;6.456;2023-06-10T12:52:32;4.85;;;3.55;;
51764;SDS011;37835;53.256;6.456;2023-06-10T12:54:58;10.68;;;3.65;;
51764;SDS011;37835;53.256;6.456;2023-06-10T12:57:25;9.38;;;4.35;;
51764;SDS011;37835;53.256;6.456;2023-06-10T12:59:51;11.27;;;3.67;;
51764;SDS011;37835;53.256;6.456;2023-06-10T13:02:22;5.32;;;3.72;;
51764;SDS011;37835;53.256;6.456;2023-06-10T13:04:49;7.53;;;3.70;;
51764;SDS011;37835;53.256;6.456;2023-06-10T13:07:15;9.20;;;3.75;;
51764;SDS011;37835;53.256;6.456;2023-06-10T13:09:41;15.48;;;4.03;;
51764;SDS011;37835;53.256;6.456;2023-06-10T13:12:08;6.38;;;3.50;;
51764;SDS011;37835;53.256;6.456;2023-06-10T13:14:33;7.28;;;3.72;;
51764;SDS011;37835;53.256;6.456;2023-06-10T13:16:59;8.77;;;4.32;;
51764;SDS011;37835;53.256;6.456;2023-06-10T13:19:25;11.48;;;3.90;;
51764;SDS011;37835;53.256;6.456;2023-06-10T13:21:51;9.23;;;3.90;;
51764;SDS011;37835;53.256;6.456;2023-06-10T13:24:17;10.20;;;3.80;;
51764;SDS011;37835;53.256;6.456;2023-06-10T13:26:42;7.57;;;3.60;;
51764;SDS011;37835;53.256;6.456;2023-06-10T13:29:08;11.30;;;3.88;;
51764;SDS011;37835;53.256;6.456;2023-06-10T13:31:39;10.10;;;3.35;;
51764;SDS011;37835;53.256;6.456;2023-06-10T13:34:05;6.35;;;3.05;;
51764;SDS011;37835;53.256;6.456;2023-06-10T13:36:31;9.93;;;3.88;;
51764;SDS011;37835;53.256;6.456;2023-06-10T13:38:56;11.65;;;4.35;;
51764;SDS011;37835;53.256;6.456;2023-06-10T13:41:22;5.25;;;3.15;;
51764;SDS011;37835;53.256;6.456;2023-06-10T13:43:48;7.25;;;3.33;;
51764;SDS011;37835;53.256;6.456;2023-06-10T13:46:13;9.15;;;3.35;;
51764;SDS011;37835;53.256;6.456;2023-06-10T13:48:39;12.98;;;4.38;;
51764;SDS011;37835;53.256;6.456;2023-06-10T13:51:04;7.68;;;4.05;;
51764;SDS011;37835;53.256;6.456;2023-06-10T13:53:31;10.15;;;3.00;;
51764;SDS011;37835;53.256;6.456;2023-06-10T13:55:56;7.00;;;3.50;;
51764;SDS011;37835;53.256;6.456;2023-06-10T13:58:22;16.02;;;3.75;;
51764;SDS011;37835;53.256;6.456;2023-06-10T14:00:48;13.63;;;3.42;;
51764;SDS011;37835;53.256;6.456;2023-06-10T14:03:13;5.63;;;3.30;;
51764;SDS011;37835;53.256;6.456;2023-06-10T14:05:39;12.85;;;3.22;;
51764;SDS011;37835;53.256;6.456;2023-06-10T14:08:05;14.10;;;3.85;;
51764;SDS011;37835;53.256;6.456;2023-06-10T14:10:31;5.22;;;3.13;;
51764;SDS011;37835;53.256;6.456;2023-06-10T14:12:56;7.10;;;3.28;;
51764;SDS011;37835;53.256;6.456;2023-06-10T14:15:22;5.90;;;3.47;;
51764;SDS011;37835;53.256;6.456;2023-06-10T14:17:47;8.88;;;3.17;;
51764;SDS011;37835;53.256;6.456;2023-06-10T14:20:13;7.30;;;3.25;;
51764;SDS011;37835;53.256;6.456;2023-06-10T14:22:39;8.45;;;3.45;;
51764;SDS011;37835;53.256;6.456;2023-06-10T14:25:05;8.25;;;3.35;;
51764;SDS011;37835;53.256;6.456;2023-06-10T14:27:31;14.70;;;3.65;;
51764;SDS011;37835;53.256;6.456;2023-06-10T14:29:56;6.15;;;3.10;;
51764;SDS011;37835;53.256;6.456;2023-06-10T14:32:22;10.48;;;3.75;;
51764;SDS011;37835;53.256;6.456;2023-06-10T14:34:47;13.63;;;3.42;;
51764;SDS011;37835;53.256;6.456;2023-06-10T14:37:13;10.77;;;3.38;;
51764;SDS011;37835;53.256;6.456;2023-06-10T14:39:39;9.73;;;2.88;;
51764;SDS011;37835;53.256;6.456;2023-06-10T14:42:05;9.40;;;3.13;;
51764;SDS011;37835;53.256;6.456;2023-06-10T14:44:31;8.25;;;3.28;;
51764;SDS011;37835;53.256;6.456;2023-06-10T14:46:56;8.65;;;3.20;;
51764;SDS011;37835;53.256;6.456;2023-06-10T14:49:22;9.70;;;3.38;;
51764;SDS011;37835;53.256;6.456;2023-06-10T14:51:48;5.45;;;2.60;;
51764;SDS011;37835;53.256;6.456;2023-06-10T14:54:15;6.38;;;2.92;;
51764;SDS011;37835;53.256;6.456;2023-06-10T14:56:40;8.27;;;3.03;;
51764;SDS011;37835;53.256;6.456;2023-06-10T14:59:06;7.43;;;3.20;;
51764;SDS011;37835;53.256;6.456;2023-06-10T15:01:31;9.65;;;3.15;;